createdAt,value
2018-08-06T00:00:03.287Z,99.90
2018-08-06T00:02:31.516Z,99.90
2018-08-06T00:05:00.043Z,99.90
2018-08-06T00:07:27.863Z,99.90
2018-08-06T00:09:55.772Z,99.90
2018-08-06T00:12:24.248Z,99.90
2018-08-06T00:14:53.502Z,99.90
2018-08-06T00:17:21.412Z,99.90
2018-08-06T00:19:49.753Z,99.90
2018-08-06T00:22:24.589Z,99.90
2018-08-06T00:24:52.622Z,99.90
2018-08-06T00:27:21.008Z,99.90
2018-08-06T00:32:16.899Z,99.90
2018-08-06T00:34:45.133Z,99.90
2018-08-06T00:37:13.069Z,99.90
2018-08-06T00:39:41.778Z,99.90
2018-08-06T00:42:16.932Z,99.90
2018-08-06T00:44:45.104Z,99.90
2018-08-06T00:47:13.222Z,99.90
2018-08-06T00:49:41.058Z,99.90
2018-08-06T00:52:09.241Z,99.90
2018-08-06T00:54:37.044Z,99.90
2018-08-06T00:59:32.812Z,99.90
2018-08-06T01:02:01.526Z,99.90
2018-08-06T01:04:29.551Z,99.90
2018-08-06T01:06:57.629Z,99.90
2018-08-06T01:09:25.869Z,99.90
2018-08-06T01:11:53.639Z,99.90
2018-08-06T01:14:22.354Z,99.90
2018-08-06T01:16:50.343Z,99.90
2018-08-06T01:19:18.601Z,99.90
2018-08-06T01:21:46.457Z,99.90
2018-08-06T01:24:14.321Z,99.90
2018-08-06T01:26:42.478Z,99.90
2018-08-06T01:29:11.040Z,99.90
2018-08-06T01:31:39.025Z,99.90
2018-08-06T01:36:36.146Z,99.90
2018-08-06T01:39:07.437Z,99.90
2018-08-06T01:46:33.891Z,99.90
2018-08-06T01:51:29.848Z,99.90
2018-08-06T01:53:57.631Z,99.90
2018-08-06T01:56:25.641Z,99.90
2018-08-06T01:58:53.782Z,99.90
2018-08-06T02:01:21.852Z,99.90
2018-08-06T02:03:50.333Z,99.90
2018-08-06T02:06:18.158Z,99.90
2018-08-06T02:08:46.314Z,99.90
2018-08-06T02:11:14.723Z,99.90
2018-08-06T02:13:43.161Z,99.90
2018-08-06T02:16:11.298Z,99.90
2018-08-06T02:18:39.232Z,99.90
2018-08-06T02:23:35.129Z,99.90
2018-08-06T02:26:03.304Z,99.90
2018-08-06T02:28:31.335Z,99.90
2018-08-06T02:30:59.193Z,99.90
2018-08-06T02:33:27.107Z,99.90
2018-08-06T02:35:54.969Z,99.90
2018-08-06T02:38:23.580Z,99.90
2018-08-06T02:40:51.622Z,99.90
2018-08-06T02:43:19.566Z,99.90
2018-08-06T02:45:47.650Z,99.90
2018-08-06T02:48:15.621Z,99.90
2018-08-06T02:50:43.642Z,99.90
2018-08-06T02:55:40.089Z,99.90
2018-08-06T03:03:04.264Z,99.90
2018-08-06T03:05:32.177Z,99.90
2018-08-06T03:08:00.096Z,99.90
2018-08-06T03:10:28.176Z,99.90
2018-08-06T03:12:56.873Z,99.90
2018-08-06T03:15:25.615Z,99.90
2018-08-06T03:17:53.414Z,99.90
2018-08-06T03:20:21.467Z,99.90
2018-08-06T03:22:49.334Z,99.90
2018-08-06T03:25:17.263Z,99.90
2018-08-06T03:27:45.527Z,99.90
2018-08-06T03:30:15.199Z,99.90
2018-08-06T03:32:44.429Z,99.90
2018-08-06T03:35:12.829Z,99.90
2018-08-06T03:37:40.933Z,99.90
2018-08-06T03:40:09.554Z,99.90
2018-08-06T03:45:06.995Z,99.90
2018-08-06T03:47:35.012Z,99.90
2018-08-06T03:50:04.137Z,99.90
2018-08-06T03:52:32.338Z,99.90
2018-08-06T03:55:00.311Z,99.90
2018-08-06T03:57:28.542Z,99.90
2018-08-06T03:59:56.482Z,99.90
2018-08-06T04:02:24.930Z,99.90
2018-08-06T04:04:53.346Z,99.90
2018-08-06T04:07:22.215Z,99.90
2018-08-06T04:12:18.196Z,99.90
2018-08-06T04:14:46.731Z,99.90
2018-08-06T04:17:14.785Z,99.90
2018-08-06T04:19:42.952Z,99.90
2018-08-06T04:22:10.909Z,99.90
2018-08-06T04:24:39.003Z,99.90
2018-08-06T04:27:07.094Z,99.90
2018-08-06T04:32:02.925Z,99.90
2018-08-06T04:36:58.871Z,99.90
2018-08-06T04:39:27.104Z,99.90
2018-08-06T04:41:54.949Z,99.90
2018-08-06T04:44:23.070Z,99.90
2018-08-06T04:49:18.967Z,99.90
2018-08-06T04:51:46.908Z,99.90
2018-08-06T04:54:15.820Z,99.90
2018-08-06T04:56:44.509Z,99.90
2018-08-06T04:59:12.516Z,99.90
2018-08-06T05:04:08.463Z,99.90
2018-08-06T05:06:37.888Z,99.90
2018-08-06T05:09:09.415Z,99.90
2018-08-06T05:11:38.963Z,99.90
2018-08-06T05:14:08.994Z,99.90
2018-08-06T05:16:37.541Z,99.90
2018-08-06T05:19:05.457Z,99.90
2018-08-06T05:21:34.860Z,99.90
2018-08-06T05:24:03.125Z,99.90
2018-08-06T05:26:30.914Z,99.90
2018-08-06T05:28:58.917Z,99.90
2018-08-06T05:31:27.741Z,99.90
2018-08-06T05:33:56.903Z,99.90
2018-08-06T05:36:24.915Z,99.90
2018-08-06T05:38:54.433Z,99.90
2018-08-06T05:43:54.468Z,99.90
2018-08-06T05:46:22.509Z,99.90
2018-08-06T05:48:50.622Z,99.90
2018-08-06T05:51:18.728Z,99.90
2018-08-06T05:53:46.886Z,99.90
2018-08-06T05:56:14.803Z,99.90
2018-08-06T05:58:42.981Z,99.90
2018-08-06T06:01:11.068Z,99.90
2018-08-06T06:08:36.732Z,99.90
2018-08-06T06:11:05.723Z,99.90
2018-08-06T06:13:35.225Z,99.90
2018-08-06T06:16:03.536Z,99.90
2018-08-06T06:18:31.773Z,99.90
2018-08-06T06:21:00.112Z,99.90
2018-08-06T06:23:28.194Z,99.50
2018-08-06T06:25:56.775Z,98.30
2018-08-06T06:28:25.235Z,96.80
2018-08-06T06:30:53.542Z,94.90
2018-08-06T06:33:21.371Z,94.00
2018-08-06T06:35:49.327Z,93.90
2018-08-06T06:38:17.400Z,92.90
2018-08-06T06:40:45.500Z,92.90
2018-08-06T06:43:14.294Z,90.20
2018-08-06T06:45:42.238Z,91.10
2018-08-06T06:48:10.364Z,90.80
2018-08-06T06:50:38.681Z,89.60
2018-08-06T06:53:06.856Z,88.80
2018-08-06T06:55:34.980Z,87.00
2018-08-06T06:58:03.463Z,86.10
2018-08-06T07:00:31.699Z,90.70
2018-08-06T07:03:00.059Z,89.70
2018-08-06T07:05:28.003Z,89.70
2018-08-06T07:07:55.782Z,87.00
2018-08-06T07:10:23.820Z,86.30
2018-08-06T07:12:52.545Z,84.80
2018-08-06T07:15:20.465Z,76.20
2018-08-06T07:17:48.825Z,77.60
2018-08-06T07:20:18.811Z,77.00
2018-08-06T07:22:46.981Z,77.50
2018-08-06T07:25:14.954Z,79.60
2018-08-06T07:27:43.434Z,81.90
2018-08-06T07:30:13.499Z,80.70
2018-08-06T07:32:42.555Z,83.70
2018-08-06T07:35:11.796Z,79.60
2018-08-06T07:37:40.902Z,79.70
2018-08-06T07:40:10.900Z,75.90
2018-08-06T07:42:39.303Z,78.50
2018-08-06T07:45:10.479Z,76.20
2018-08-06T07:47:38.921Z,77.00
2018-08-06T07:50:09.185Z,75.50
2018-08-06T07:52:37.324Z,75.70
2018-08-06T07:55:05.591Z,77.50
2018-08-06T07:57:33.726Z,76.10
2018-08-06T08:00:02.169Z,72.30
2018-08-06T08:02:30.140Z,71.00
2018-08-06T08:04:57.898Z,70.50
2018-08-06T08:07:26.184Z,73.50
2018-08-06T08:09:54.148Z,71.60
2018-08-06T08:12:22.422Z,73.90
2018-08-06T08:14:50.504Z,74.50
2018-08-06T08:17:20.154Z,75.50
2018-08-06T08:19:49.057Z,74.30
2018-08-06T08:22:18.463Z,72.50
2018-08-06T08:24:47.674Z,69.40
2018-08-06T08:27:16.703Z,72.00
2018-08-06T08:29:44.715Z,73.10
2018-08-06T08:32:13.545Z,71.90
2018-08-06T08:34:43.952Z,72.20
2018-08-06T08:37:14.933Z,72.50
2018-08-06T08:39:43.150Z,73.50
2018-08-06T08:42:11.963Z,71.80
2018-08-06T08:44:40.714Z,72.30
2018-08-06T08:47:09.454Z,71.30
2018-08-06T08:49:38.239Z,70.00
2018-08-06T08:52:07.168Z,71.00
2018-08-06T08:54:35.411Z,70.60
2018-08-06T08:57:04.200Z,72.50
2018-08-06T08:59:33.848Z,69.80
2018-08-06T09:02:03.000Z,70.10
2018-08-06T09:04:31.447Z,72.50
2018-08-06T09:07:01.894Z,70.90
2018-08-06T09:09:30.111Z,74.10
2018-08-06T09:11:59.687Z,70.30
2018-08-06T09:14:28.985Z,70.30
2018-08-06T09:16:57.981Z,67.40
2018-08-06T09:19:28.399Z,70.50
2018-08-06T09:21:57.630Z,69.20
2018-08-06T09:24:27.822Z,67.40
2018-08-06T09:26:56.170Z,66.70
2018-08-06T09:29:25.567Z,69.30
2018-08-06T09:31:54.890Z,67.50
2018-08-06T09:34:24.161Z,66.50
2018-08-06T09:36:53.091Z,66.30
2018-08-06T09:39:22.148Z,66.90
2018-08-06T09:41:50.871Z,66.70
2018-08-06T09:44:20.318Z,67.00
2018-08-06T09:46:50.393Z,66.90
2018-08-06T09:49:18.782Z,65.00
2018-08-06T09:51:47.033Z,65.70
2018-08-06T09:54:16.170Z,64.60
2018-08-06T09:56:46.198Z,66.20
2018-08-06T09:59:15.426Z,66.30
2018-08-06T10:01:49.695Z,64.80
2018-08-06T10:04:17.737Z,63.30
2018-08-06T10:06:46.188Z,65.00
2018-08-06T10:09:14.945Z,64.30
2018-08-06T10:11:43.176Z,64.30
2018-08-06T10:14:12.105Z,63.80
2018-08-06T10:16:40.367Z,61.70
2018-08-06T10:19:08.768Z,65.10
2018-08-06T10:21:38.076Z,62.90
2018-08-06T10:24:06.459Z,62.20
2018-08-06T10:26:36.131Z,65.10
2018-08-06T10:31:32.440Z,63.20
2018-08-06T10:34:00.263Z,60.60
2018-08-06T10:36:28.351Z,60.30
2018-08-06T10:38:56.661Z,61.20
2018-08-06T10:41:25.081Z,62.00
2018-08-06T10:43:53.371Z,60.70
2018-08-06T10:46:21.373Z,60.70
2018-08-06T10:48:49.459Z,60.50
2018-08-06T10:51:17.913Z,58.80
2018-08-06T10:53:46.179Z,57.90
2018-08-06T10:56:14.072Z,58.80
2018-08-06T10:58:42.495Z,59.80
2018-08-06T11:01:10.495Z,59.20
2018-08-06T11:03:39.386Z,58.70
2018-08-06T11:06:07.395Z,59.40
2018-08-06T11:08:35.148Z,59.60
2018-08-06T11:11:03.409Z,58.70
2018-08-06T11:13:32.490Z,56.90
2018-08-06T11:16:00.645Z,57.00
2018-08-06T11:18:29.010Z,58.70
2018-08-06T11:20:57.044Z,57.00
2018-08-06T11:23:25.118Z,57.00
2018-08-06T11:25:53.515Z,58.00
2018-08-06T11:28:22.042Z,56.60
2018-08-06T11:30:50.249Z,57.00
2018-08-06T11:33:18.707Z,57.30
2018-08-06T11:35:47.375Z,58.50
2018-08-06T11:38:15.527Z,58.00
2018-08-06T11:40:43.960Z,58.00
2018-08-06T11:43:12.182Z,56.60
2018-08-06T11:45:40.530Z,56.90
2018-08-06T11:48:08.974Z,56.90
2018-08-06T11:50:37.499Z,57.10
2018-08-06T11:53:05.364Z,56.80
2018-08-06T11:55:33.834Z,56.80
2018-08-06T11:58:01.778Z,57.10
2018-08-06T12:00:29.972Z,57.30
2018-08-06T12:02:58.175Z,58.30
2018-08-06T12:05:26.273Z,58.60
2018-08-06T12:07:54.805Z,58.30
2018-08-06T12:10:22.734Z,57.20
2018-08-06T12:12:51.241Z,58.20
2018-08-06T12:15:19.249Z,57.30
2018-08-06T12:17:47.592Z,56.70
2018-08-06T12:20:17.280Z,57.80
2018-08-06T12:22:46.772Z,57.90
2018-08-06T12:25:17.099Z,58.00
2018-08-06T12:27:45.564Z,58.20
2018-08-06T12:30:15.771Z,57.80
2018-08-06T12:32:44.697Z,58.00
2018-08-06T12:35:12.811Z,59.60
2018-08-06T12:37:41.516Z,57.80
2018-08-06T12:40:12.956Z,57.90
2018-08-06T12:42:41.899Z,57.50
2018-08-06T12:45:11.301Z,57.90
2018-08-06T12:47:39.866Z,56.80
2018-08-06T12:50:09.238Z,56.20
2018-08-06T12:52:38.310Z,56.50
2018-08-06T12:55:08.231Z,56.20
2018-08-06T12:57:36.523Z,57.50
2018-08-06T13:00:07.527Z,58.60
2018-08-06T13:02:35.680Z,58.30
2018-08-06T13:05:04.604Z,56.60
2018-08-06T13:07:32.734Z,58.10
2018-08-06T13:10:02.014Z,55.70
2018-08-06T13:12:30.213Z,56.40
2018-08-06T13:14:58.528Z,57.60
2018-08-06T13:17:26.486Z,56.40
2018-08-06T13:19:54.601Z,56.50
2018-08-06T13:22:22.990Z,56.00
2018-08-06T13:24:51.053Z,54.50
2018-08-06T13:27:19.454Z,56.10
2018-08-06T13:29:47.866Z,56.30
2018-08-06T13:32:16.173Z,57.50
2018-08-06T13:34:44.907Z,55.00
2018-08-06T13:37:12.664Z,55.30
2018-08-06T13:39:40.676Z,54.40
2018-08-06T13:42:09.834Z,54.30
2018-08-06T13:44:38.446Z,55.40
2018-08-06T13:47:06.421Z,54.60
2018-08-06T13:49:34.943Z,55.30
2018-08-06T13:52:04.766Z,57.10
2018-08-06T13:54:33.427Z,55.80
2018-08-06T13:57:01.417Z,54.30
2018-08-06T13:59:29.726Z,54.20
2018-08-06T14:01:57.827Z,54.80
2018-08-06T14:04:26.347Z,55.40
2018-08-06T14:06:54.171Z,54.10
2018-08-06T14:09:22.187Z,54.80
2018-08-06T14:11:50.999Z,54.60
2018-08-06T14:14:20.370Z,55.20
2018-08-06T14:16:48.440Z,54.50
2018-08-06T14:19:16.490Z,55.20
2018-08-06T14:21:44.726Z,53.80
2018-08-06T14:24:12.908Z,54.50
2018-08-06T14:26:41.023Z,53.20
2018-08-06T14:29:09.292Z,53.80
2018-08-06T14:31:38.518Z,54.50
2018-08-06T14:34:06.984Z,52.80
2018-08-06T14:36:36.457Z,53.70
2018-08-06T14:39:07.982Z,54.10
2018-08-06T14:41:37.805Z,53.50
2018-08-06T14:44:07.176Z,52.00
2018-08-06T14:46:37.380Z,53.60
2018-08-06T14:49:06.105Z,53.70
2018-08-06T14:51:34.699Z,54.80
2018-08-06T14:54:03.388Z,55.30
2018-08-06T14:56:31.776Z,54.00
2018-08-06T15:01:27.935Z,54.60
2018-08-06T15:03:56.373Z,53.60
2018-08-06T15:06:24.861Z,52.60
2018-08-06T15:08:52.822Z,53.40
2018-08-06T15:11:21.023Z,54.20
2018-08-06T15:13:49.575Z,53.00
2018-08-06T15:16:17.508Z,53.00
2018-08-06T15:18:45.731Z,52.90
2018-08-06T15:21:13.753Z,54.50
2018-08-06T15:23:42.209Z,53.10
2018-08-06T15:26:10.353Z,54.20
2018-08-06T15:28:38.271Z,52.40
2018-08-06T15:31:07.271Z,53.00
2018-08-06T15:33:35.403Z,52.90
2018-08-06T15:36:03.923Z,52.50
2018-08-06T15:38:33.651Z,51.30
2018-08-06T15:41:02.005Z,51.80
2018-08-06T15:43:30.975Z,52.70
2018-08-06T15:45:59.113Z,51.20
2018-08-06T15:48:26.783Z,52.30
2018-08-06T15:50:55.204Z,52.40
2018-08-06T15:53:22.908Z,51.30
2018-08-06T15:55:50.957Z,52.70
2018-08-06T15:58:18.952Z,53.20
2018-08-06T16:00:47.121Z,52.40
2018-08-06T16:03:15.415Z,53.50
2018-08-06T16:05:43.476Z,52.50
2018-08-06T16:08:11.795Z,51.40
2018-08-06T16:10:40.031Z,51.80
2018-08-06T16:13:08.577Z,54.10
2018-08-06T16:15:36.660Z,53.20
2018-08-06T16:18:05.022Z,51.40
2018-08-06T16:20:33.053Z,51.80
2018-08-06T16:23:01.387Z,50.70
2018-08-06T16:25:29.582Z,51.00
2018-08-06T16:27:57.634Z,50.80
2018-08-06T16:30:26.319Z,51.50
2018-08-06T16:32:54.370Z,51.10
2018-08-06T16:35:23.620Z,51.30
2018-08-06T16:37:53.224Z,54.20
2018-08-06T16:40:21.312Z,52.70
2018-08-06T16:42:50.175Z,54.70
2018-08-06T16:45:18.545Z,52.50
2018-08-06T16:47:46.940Z,52.40
2018-08-06T16:50:16.535Z,52.60
2018-08-06T16:52:45.050Z,52.60
2018-08-06T16:55:13.174Z,54.00
2018-08-06T16:57:41.455Z,51.70
2018-08-06T17:00:17.187Z,52.70
2018-08-06T17:02:45.600Z,53.20
2018-08-06T17:05:14.332Z,54.00
2018-08-06T17:07:43.617Z,54.00
2018-08-06T17:10:13.958Z,54.00
2018-08-06T17:12:43.798Z,53.60
2018-08-06T17:15:13.750Z,56.40
2018-08-06T17:17:42.364Z,56.10
2018-08-06T17:20:14.824Z,57.50
2018-08-06T17:22:44.101Z,58.40
2018-08-06T17:25:12.473Z,58.30
2018-08-06T17:27:40.796Z,59.90
2018-08-06T17:30:10.679Z,59.50
2018-08-06T17:32:39.266Z,60.00
2018-08-06T17:37:36.565Z,61.40
2018-08-06T17:40:10.810Z,63.60
2018-08-06T17:42:39.602Z,64.10
2018-08-06T17:45:11.983Z,64.00
2018-08-06T17:47:40.956Z,63.50
2018-08-06T17:50:12.029Z,65.00
2018-08-06T17:52:40.103Z,64.10
2018-08-06T17:55:08.358Z,64.50
2018-08-06T17:57:36.938Z,65.50
2018-08-06T18:00:07.629Z,67.00
2018-08-06T18:02:36.816Z,67.50
2018-08-06T18:05:05.887Z,68.30
2018-08-06T18:07:34.073Z,68.90
2018-08-06T18:10:02.314Z,70.70
2018-08-06T18:12:31.024Z,70.60
2018-08-06T18:14:59.352Z,71.40
2018-08-06T18:17:27.304Z,72.40
2018-08-06T18:19:55.231Z,73.80
2018-08-06T18:22:23.952Z,74.70
2018-08-06T18:24:52.044Z,74.60
2018-08-06T18:27:21.587Z,74.80
2018-08-06T18:29:50.341Z,75.50
2018-08-06T18:32:18.902Z,75.90
2018-08-06T18:34:47.352Z,76.50
2018-08-06T18:37:15.257Z,77.10
2018-08-06T18:39:43.674Z,77.90
2018-08-06T18:42:12.859Z,78.70
2018-08-06T18:44:42.793Z,79.20
2018-08-06T18:47:10.959Z,79.70
2018-08-06T18:49:40.283Z,80.30
2018-08-06T18:52:12.851Z,80.70
2018-08-06T18:54:41.713Z,81.20
2018-08-06T18:57:09.991Z,81.80
2018-08-06T18:59:38.832Z,82.60
2018-08-06T19:02:07.317Z,83.10
2018-08-06T19:04:35.853Z,84.00
2018-08-06T19:07:04.299Z,84.40
2018-08-06T19:09:32.894Z,85.60
2018-08-06T19:12:08.924Z,85.90
2018-08-06T19:14:37.796Z,85.20
2018-08-06T19:17:05.934Z,85.30
2018-08-06T19:19:35.734Z,86.20
2018-08-06T19:22:05.901Z,86.40
2018-08-06T19:24:39.425Z,86.60
2018-08-06T19:27:07.745Z,87.10
2018-08-06T19:29:35.895Z,87.30
2018-08-06T19:32:05.585Z,88.20
2018-08-06T19:34:34.781Z,88.60
2018-08-06T19:37:08.680Z,89.00
2018-08-06T19:39:37.929Z,89.60
2018-08-06T19:42:06.705Z,90.40
2018-08-06T19:44:34.797Z,90.70
2018-08-06T19:47:03.193Z,90.80
2018-08-06T19:49:38.607Z,91.00
2018-08-06T19:52:08.172Z,91.00
2018-08-06T19:54:36.886Z,91.20
2018-08-06T19:57:06.764Z,91.30
2018-08-06T19:59:38.084Z,91.40
2018-08-06T20:02:07.492Z,91.40
2018-08-06T20:04:36.941Z,91.70
2018-08-06T20:07:05.513Z,91.90
2018-08-06T20:09:36.071Z,92.20
2018-08-06T20:12:04.568Z,92.60
2018-08-06T20:14:34.873Z,93.20
2018-08-06T20:17:03.741Z,93.30
2018-08-06T20:19:32.409Z,93.30
2018-08-06T20:22:01.115Z,93.50
2018-08-06T20:24:30.454Z,94.00
2018-08-06T20:26:58.506Z,94.30
2018-08-06T20:29:27.418Z,94.40
2018-08-06T20:31:56.713Z,94.90
2018-08-06T20:34:26.693Z,95.00
2018-08-06T20:36:55.063Z,95.10
2018-08-06T20:39:24.477Z,95.10
2018-08-06T20:41:53.071Z,95.30
2018-08-06T20:44:22.840Z,95.50
2018-08-06T20:46:50.912Z,95.70
2018-08-06T20:49:19.871Z,95.80
2018-08-06T20:51:50.844Z,95.80
2018-08-06T20:54:18.927Z,95.90
2018-08-06T20:56:47.555Z,95.80
2018-08-06T20:59:16.441Z,95.80
2018-08-06T21:01:44.703Z,96.00
2018-08-06T21:04:13.598Z,96.10
2018-08-06T21:06:41.933Z,96.40
2018-08-06T21:09:11.222Z,96.40
2018-08-06T21:11:40.962Z,96.50
2018-08-06T21:14:09.472Z,96.50
2018-08-06T21:16:39.068Z,96.70
2018-08-06T21:19:07.431Z,97.00
2018-08-06T21:21:37.298Z,97.10
2018-08-06T21:24:05.548Z,97.20
2018-08-06T21:26:34.720Z,97.20
2018-08-06T21:29:02.777Z,97.30
2018-08-06T21:31:32.216Z,97.40
2018-08-06T21:34:00.226Z,97.50
2018-08-06T21:36:29.789Z,97.60
2018-08-06T21:38:59.372Z,97.80
2018-08-06T21:41:29.354Z,97.80
2018-08-06T21:43:57.641Z,97.80
2018-08-06T21:46:25.910Z,98.00
2018-08-06T21:48:54.412Z,98.10
2018-08-06T21:51:22.533Z,98.10
2018-08-06T21:53:50.408Z,98.10
2018-08-06T21:58:46.522Z,98.60
2018-08-06T22:01:14.897Z,98.50
2018-08-06T22:03:42.963Z,98.60
2018-08-06T22:06:10.995Z,98.70
2018-08-06T22:08:39.220Z,98.90
2018-08-06T22:11:07.870Z,99.10
2018-08-06T22:13:36.305Z,99.10
2018-08-06T22:16:04.891Z,99.10
2018-08-06T22:21:01.248Z,99.40
2018-08-06T22:23:29.533Z,99.60
2018-08-06T22:25:57.764Z,99.60
2018-08-06T22:28:25.921Z,99.70
2018-08-06T22:30:54.138Z,99.60
2018-08-06T22:33:22.269Z,99.70
2018-08-06T22:35:50.383Z,99.70
2018-08-06T22:38:18.616Z,99.80
2018-08-06T22:40:46.502Z,99.80
2018-08-06T22:45:43.406Z,99.90
2018-08-06T22:48:11.866Z,99.90
2018-08-06T22:50:40.041Z,99.90
2018-08-06T22:53:08.382Z,99.90
2018-08-06T22:55:47.695Z,99.90
2018-08-06T22:58:15.810Z,99.90
2018-08-06T23:03:12.163Z,99.90
2018-08-06T23:08:08.133Z,99.90
2018-08-06T23:10:36.136Z,99.90
2018-08-06T23:13:04.901Z,99.90
2018-08-06T23:15:33.410Z,99.90
2018-08-06T23:18:01.383Z,99.90
2018-08-06T23:20:29.459Z,99.90
2018-08-06T23:22:57.503Z,99.90
2018-08-06T23:25:25.789Z,99.90
2018-08-06T23:27:53.732Z,99.90
2018-08-06T23:30:22.072Z,99.90
2018-08-06T23:32:50.351Z,99.90
2018-08-06T23:35:18.349Z,99.90
2018-08-06T23:37:46.170Z,99.90
2018-08-06T23:42:42.890Z,99.90
2018-08-06T23:45:12.685Z,99.90
2018-08-06T23:47:41.286Z,99.90
2018-08-06T23:50:11.075Z,99.90
2018-08-06T23:52:40.000Z,99.90
2018-08-06T23:55:09.113Z,99.90
2018-08-06T23:57:37.496Z,99.90
